CheckWX is a tool to help pilots better visualize weather data.  It is not intended as a substitute for an official pre-flight weather briefing.

18:44:22 UTC

KSCK TAF
Stockton Metropolitan Airport
Stockton, California, USA
KSCK 201738Z 2018/2118 32006KT P6SM SKC FM210600 VRB04KT P6SM SKC

Sep-20@
18:00 UTC

Sep-20 @ 18:00 UTC

Sep-21@
06:00 UTC

Sep-21 @ 06:00 UTC

KSCK 201738Z 2018/2118 32006KT P6SM SKC
Wind
  • 320° at 6 KTS
Cloud Levels
  • Clear skies

Sep-21@
06:00 UTC

Sep-21 @ 06:00 UTC

Sep-21@
18:00 UTC

Sep-21 @ 18:00 UTC

FM210600 VRB04KT P6SM SKC

From

From Standard forecast or significant change

Wind
  • Variable at 4 KTS
Cloud Levels
  • Clear skies